Nashville, Tennessee
Traffic Map
Current Weather Conditions
Nashville, Tennessee
Broken Clouds
Broken Clouds
50°
Feels Like: 50°
Wind Chill: 50° Ceiling: 10000
Heat Index: 50° Visibility: 10mi
Dew Point: 29° Wind: 13mph
Humidity: 44% Direction: 180° (S)
Pressure: 30.35in Gusts: 0mph
Raw Report DataKBNA 221353Z 18011KT 10SM BKN100 10/M02 A3035 RMK AO2 SLP279 T01001017
Traffic Incident Summary
Active as of:
Severity:
Category:
InformationThere was an issue retrieving the traffic information for this location. Please try a different location or try again shortly.
Advertisements
Track Severe Weather on mobile